Terminal Aerodrome Forecast
Issued by NWS

Home | Current Version | Previous Version | Text Only | Print | Product List | Glossary On
Versions: 1 2 3 4 5 6 7 8 9 10 11 12 13 14 15 16 17
000
FTUS43 KTOP 181700
TAFMHK
TAF
KMHK 181731Z 1818/1918 16012G20KT P6SM SKC
     FM190100 16007KT P6SM SKC
     FM191400 19016G23KT P6SM SCT250=

USA.gov is the U.S. government's official web portal to all federal, state and local government web resources and services.